sensor_id;sensor_type;location;lat;lon;timestamp;P1;durP1;ratioP1;P2;durP2;ratioP2
53775;SDS011;44276;49.534;6.378;2023-03-01T00:02:04;11.20;;;5.13;;
53775;SDS011;44276;49.534;6.378;2023-03-01T00:04:33;5.78;;;3.78;;
53775;SDS011;44276;49.534;6.378;2023-03-01T00:07:01;8.18;;;4.95;;
53775;SDS011;44276;49.534;6.378;2023-03-01T00:09:30;8.30;;;5.18;;
53775;SDS011;44276;49.534;6.378;2023-03-01T00:11:58;7.78;;;4.88;;
53775;SDS011;44276;49.534;6.378;2023-03-01T00:14:26;9.18;;;4.32;;
53775;SDS011;44276;49.534;6.378;2023-03-01T00:16:56;10.63;;;5.82;;
53775;SDS011;44276;49.534;6.378;2023-03-01T00:19:24;12.52;;;6.63;;
53775;SDS011;44276;49.534;6.378;2023-03-01T00:21:52;11.98;;;4.50;;
53775;SDS011;44276;49.534;6.378;2023-03-01T00:24:20;12.77;;;5.32;;
53775;SDS011;44276;49.534;6.378;2023-03-01T00:26:48;7.95;;;4.43;;
53775;SDS011;44276;49.534;6.378;2023-03-01T00:29:22;13.23;;;6.15;;
53775;SDS011;44276;49.534;6.378;2023-03-01T00:31:50;8.43;;;4.97;;
53775;SDS011;44276;49.534;6.378;2023-03-01T00:34:20;8.52;;;5.50;;
53775;SDS011;44276;49.534;6.378;2023-03-01T00:36:48;12.40;;;4.63;;
53775;SDS011;44276;49.534;6.378;2023-03-01T00:39:16;10.60;;;5.57;;
53775;SDS011;44276;49.534;6.378;2023-03-01T00:41:44;13.35;;;4.88;;
53775;SDS011;44276;49.534;6.378;2023-03-01T00:44:12;13.25;;;5.60;;
53775;SDS011;44276;49.534;6.378;2023-03-01T00:46:40;8.20;;;5.55;;
53775;SDS011;44276;49.534;6.378;2023-03-01T00:49:09;15.32;;;5.88;;
53775;SDS011;44276;49.534;6.378;2023-03-01T00:51:38;7.45;;;4.47;;
53775;SDS011;44276;49.534;6.378;2023-03-01T00:54:07;13.30;;;7.05;;
53775;SDS011;44276;49.534;6.378;2023-03-01T00:56:36;11.70;;;5.90;;
53775;SDS011;44276;49.534;6.378;2023-03-01T00:59:04;9.13;;;5.05;;
53775;SDS011;44276;49.534;6.378;2023-03-01T01:01:33;11.02;;;5.68;;
53775;SDS011;44276;49.534;6.378;2023-03-01T01:04:02;14.40;;;7.00;;
53775;SDS011;44276;49.534;6.378;2023-03-01T01:06:33;8.20;;;4.82;;
53775;SDS011;44276;49.534;6.378;2023-03-01T01:09:05;13.23;;;6.60;;
53775;SDS011;44276;49.534;6.378;2023-03-01T01:11:34;13.00;;;7.22;;
53775;SDS011;44276;49.534;6.378;2023-03-01T01:14:03;11.05;;;4.63;;
53775;SDS011;44276;49.534;6.378;2023-03-01T01:16:32;13.23;;;6.38;;
53775;SDS011;44276;49.534;6.378;2023-03-01T01:19:00;9.60;;;4.47;;
53775;SDS011;44276;49.534;6.378;2023-03-01T01:21:29;11.32;;;6.15;;
53775;SDS011;44276;49.534;6.378;2023-03-01T01:23:58;13.40;;;6.25;;
53775;SDS011;44276;49.534;6.378;2023-03-01T01:26:29;11.93;;;5.40;;
53775;SDS011;44276;49.534;6.378;2023-03-01T01:28:59;13.25;;;6.10;;
53775;SDS011;44276;49.534;6.378;2023-03-01T01:31:31;10.40;;;5.55;;
53775;SDS011;44276;49.534;6.378;2023-03-01T01:34:02;18.88;;;6.35;;
53775;SDS011;44276;49.534;6.378;2023-03-01T01:36:33;11.98;;;6.72;;
53775;SDS011;44276;49.534;6.378;2023-03-01T01:39:02;7.53;;;5.53;;
53775;SDS011;44276;49.534;6.378;2023-03-01T01:41:32;10.73;;;6.03;;
53775;SDS011;44276;49.534;6.378;2023-03-01T01:44:12;12.68;;;5.75;;
53775;SDS011;44276;49.534;6.378;2023-03-01T01:46:44;10.23;;;6.25;;
53775;SDS011;44276;49.534;6.378;2023-03-01T01:49:19;11.50;;;6.18;;
53775;SDS011;44276;49.534;6.378;2023-03-01T01:52:04;12.85;;;7.22;;
53775;SDS011;44276;49.534;6.378;2023-03-01T01:54:40;12.07;;;6.32;;
53775;SDS011;44276;49.534;6.378;2023-03-01T01:57:16;8.38;;;5.40;;
53775;SDS011;44276;49.534;6.378;2023-03-01T01:59:51;17.67;;;7.38;;
53775;SDS011;44276;49.534;6.378;2023-03-01T02:02:25;20.25;;;7.47;;
53775;SDS011;44276;49.534;6.378;2023-03-01T02:04:57;9.77;;;5.60;;
53775;SDS011;44276;49.534;6.378;2023-03-01T02:07:37;14.27;;;6.05;;
53775;SDS011;44276;49.534;6.378;2023-03-01T02:10:07;10.13;;;5.45;;
53775;SDS011;44276;49.534;6.378;2023-03-01T02:12:38;18.70;;;6.65;;
53775;SDS011;44276;49.534;6.378;2023-03-01T02:15:07;12.18;;;6.00;;
53775;SDS011;44276;49.534;6.378;2023-03-01T02:17:36;12.27;;;6.05;;
53775;SDS011;44276;49.534;6.378;2023-03-01T02:20:08;12.18;;;6.68;;
53775;SDS011;44276;49.534;6.378;2023-03-01T02:22:46;10.05;;;6.53;;
53775;SDS011;44276;49.534;6.378;2023-03-01T02:28:20;10.98;;;5.85;;
53775;SDS011;44276;49.534;6.378;2023-03-01T02:30:56;12.40;;;5.70;;
53775;SDS011;44276;49.534;6.378;2023-03-01T02:33:42;19.58;;;6.20;;
53775;SDS011;44276;49.534;6.378;2023-03-01T02:36:19;12.38;;;6.45;;
53775;SDS011;44276;49.534;6.378;2023-03-01T02:38:55;10.48;;;6.40;;
53775;SDS011;44276;49.534;6.378;2023-03-01T02:41:29;10.73;;;6.80;;
53775;SDS011;44276;49.534;6.378;2023-03-01T02:44:04;15.90;;;8.30;;
53775;SDS011;44276;49.534;6.378;2023-03-01T02:46:33;13.43;;;7.38;;
53775;SDS011;44276;49.534;6.378;2023-03-01T02:49:21;10.60;;;5.90;;
53775;SDS011;44276;49.534;6.378;2023-03-01T02:51:54;15.55;;;8.07;;
53775;SDS011;44276;49.534;6.378;2023-03-01T02:54:49;12.35;;;6.90;;
53775;SDS011;44276;49.534;6.378;2023-03-01T02:57:25;11.85;;;7.10;;
53775;SDS011;44276;49.534;6.378;2023-03-01T02:59:59;14.25;;;7.57;;
53775;SDS011;44276;49.534;6.378;2023-03-01T03:05:04;10.63;;;6.03;;
53775;SDS011;44276;49.534;6.378;2023-03-01T03:07:37;13.07;;;6.53;;
53775;SDS011;44276;49.534;6.378;2023-03-01T03:10:09;14.27;;;6.90;;
53775;SDS011;44276;49.534;6.378;2023-03-01T03:12:40;15.15;;;7.65;;
53775;SDS011;44276;49.534;6.378;2023-03-01T03:15:10;15.65;;;7.15;;
53775;SDS011;44276;49.534;6.378;2023-03-01T03:17:40;11.13;;;5.97;;
53775;SDS011;44276;49.534;6.378;2023-03-01T03:20:12;18.15;;;8.52;;
53775;SDS011;44276;49.534;6.378;2023-03-01T03:22:45;10.57;;;6.63;;
53775;SDS011;44276;49.534;6.378;2023-03-01T03:25:15;19.17;;;6.55;;
53775;SDS011;44276;49.534;6.378;2023-03-01T03:27:46;16.25;;;7.20;;
53775;SDS011;44276;49.534;6.378;2023-03-01T03:30:18;10.18;;;6.35;;
53775;SDS011;44276;49.534;6.378;2023-03-01T03:32:47;12.93;;;6.47;;
53775;SDS011;44276;49.534;6.378;2023-03-01T03:35:20;11.35;;;7.60;;
53775;SDS011;44276;49.534;6.378;2023-03-01T03:37:51;20.75;;;7.45;;
53775;SDS011;44276;49.534;6.378;2023-03-01T03:40:29;12.63;;;6.90;;
53775;SDS011;44276;49.534;6.378;2023-03-01T03:43:00;15.68;;;7.45;;
53775;SDS011;44276;49.534;6.378;2023-03-01T03:45:30;14.00;;;6.45;;
53775;SDS011;44276;49.534;6.378;2023-03-01T03:47:59;16.60;;;7.93;;
53775;SDS011;44276;49.534;6.378;2023-03-01T03:50:29;18.50;;;7.88;;
53775;SDS011;44276;49.534;6.378;2023-03-01T03:52:57;16.33;;;8.68;;
53775;SDS011;44276;49.534;6.378;2023-03-01T03:55:27;14.40;;;7.63;;
53775;SDS011;44276;49.534;6.378;2023-03-01T03:57:57;14.15;;;7.72;;
53775;SDS011;44276;49.534;6.378;2023-03-01T04:00:30;15.07;;;8.60;;
53775;SDS011;44276;49.534;6.378;2023-03-01T04:02:58;17.58;;;9.32;;
53775;SDS011;44276;49.534;6.378;2023-03-01T04:05:27;19.88;;;9.10;;
53775;SDS011;44276;49.534;6.378;2023-03-01T04:07:55;19.45;;;10.95;;
53775;SDS011;44276;49.534;6.378;2023-03-01T04:10:34;16.95;;;8.15;;
53775;SDS011;44276;49.534;6.378;2023-03-01T04:13:04;16.98;;;8.25;;
53775;SDS011;44276;49.534;6.378;2023-03-01T04:15:36;15.13;;;8.00;;
53775;SDS011;44276;49.534;6.378;2023-03-01T04:18:04;16.55;;;7.65;;
53775;SDS011;44276;49.534;6.378;2023-03-01T04:20:34;16.92;;;9.23;;
53775;SDS011;44276;49.534;6.378;2023-03-01T04:23:04;20.65;;;11.75;;
53775;SDS011;44276;49.534;6.378;2023-03-01T04:25:42;91.68;;;35.72;;
53775;SDS011;44276;49.534;6.378;2023-03-01T04:28:19;33.55;;;15.52;;
53775;SDS011;44276;49.534;6.378;2023-03-01T04:30:52;19.15;;;10.35;;
53775;SDS011;44276;49.534;6.378;2023-03-01T04:33:22;18.48;;;9.57;;
53775;SDS011;44276;49.534;6.378;2023-03-01T04:35:52;19.60;;;9.90;;
53775;SDS011;44276;49.534;6.378;2023-03-01T04:38:20;17.88;;;9.35;;
53775;SDS011;44276;49.534;6.378;2023-03-01T04:40:48;16.98;;;9.75;;
53775;SDS011;44276;49.534;6.378;2023-03-01T04:43:17;17.50;;;9.05;;
53775;SDS011;44276;49.534;6.378;2023-03-01T04:45:45;19.05;;;10.07;;
53775;SDS011;44276;49.534;6.378;2023-03-01T04:48:14;26.75;;;13.25;;
53775;SDS011;44276;49.534;6.378;2023-03-01T04:50:42;23.70;;;11.93;;
53775;SDS011;44276;49.534;6.378;2023-03-01T04:53:10;39.45;;;16.73;;
53775;SDS011;44276;49.534;6.378;2023-03-01T04:55:38;39.42;;;15.85;;
53775;SDS011;44276;49.534;6.378;2023-03-01T04:58:06;57.20;;;19.60;;
53775;SDS011;44276;49.534;6.378;2023-03-01T05:00:35;46.50;;;16.77;;
53775;SDS011;44276;49.534;6.378;2023-03-01T05:03:03;40.55;;;17.35;;
53775;SDS011;44276;49.534;6.378;2023-03-01T05:05:33;58.78;;;19.42;;
53775;SDS011;44276;49.534;6.378;2023-03-01T05:08:04;76.55;;;24.75;;
53775;SDS011;44276;49.534;6.378;2023-03-01T05:10:44;62.72;;;21.52;;
53775;SDS011;44276;49.534;6.378;2023-03-01T05:13:15;56.45;;;20.73;;
53775;SDS011;44276;49.534;6.378;2023-03-01T05:15:47;42.05;;;16.90;;
53775;SDS011;44276;49.534;6.378;2023-03-01T05:18:16;34.70;;;14.80;;
53775;SDS011;44276;49.534;6.378;2023-03-01T05:20:46;30.13;;;11.55;;
53775;SDS011;44276;49.534;6.378;2023-03-01T05:23:14;38.05;;;13.25;;
53775;SDS011;44276;49.534;6.378;2023-03-01T05:25:42;28.30;;;12.38;;
53775;SDS011;44276;49.534;6.378;2023-03-01T05:28:11;49.08;;;18.75;;
53775;SDS011;44276;49.534;6.378;2023-03-01T05:30:40;65.10;;;24.58;;
53775;SDS011;44276;49.534;6.378;2023-03-01T05:33:08;58.78;;;24.73;;
53775;SDS011;44276;49.534;6.378;2023-03-01T05:35:39;58.30;;;21.23;;
53775;SDS011;44276;49.534;6.378;2023-03-01T05:38:10;65.13;;;23.02;;
53775;SDS011;44276;49.534;6.378;2023-03-01T05:40:40;50.42;;;17.67;;
53775;SDS011;44276;49.534;6.378;2023-03-01T05:43:11;84.43;;;24.02;;
53775;SDS011;44276;49.534;6.378;2023-03-01T05:45:41;56.42;;;20.38;;
53775;SDS011;44276;49.534;6.378;2023-03-01T05:48:10;22.17;;;12.10;;
53775;SDS011;44276;49.534;6.378;2023-03-01T05:50:40;20.92;;;11.02;;
53775;SDS011;44276;49.534;6.378;2023-03-01T05:53:13;44.40;;;24.25;;
53775;SDS011;44276;49.534;6.378;2023-03-01T05:55:44;27.58;;;17.70;;
53775;SDS011;44276;49.534;6.378;2023-03-01T05:58:14;36.15;;;15.85;;
53775;SDS011;44276;49.534;6.378;2023-03-01T06:00:45;23.75;;;11.68;;
53775;SDS011;44276;49.534;6.378;2023-03-01T06:03:17;41.05;;;16.00;;
53775;SDS011;44276;49.534;6.378;2023-03-01T06:05:45;65.15;;;27.30;;
53775;SDS011;44276;49.534;6.378;2023-03-01T06:08:15;90.05;;;43.78;;
53775;SDS011;44276;49.534;6.378;2023-03-01T06:10:43;44.83;;;22.23;;
53775;SDS011;44276;49.534;6.378;2023-03-01T06:13:11;29.30;;;15.32;;
53775;SDS011;44276;49.534;6.378;2023-03-01T06:15:39;45.28;;;18.40;;
53775;SDS011;44276;49.534;6.378;2023-03-01T06:18:08;28.20;;;14.15;;
53775;SDS011;44276;49.534;6.378;2023-03-01T06:20:36;26.65;;;13.65;;
53775;SDS011;44276;49.534;6.378;2023-03-01T06:23:04;26.17;;;13.13;;
53775;SDS011;44276;49.534;6.378;2023-03-01T06:25:36;42.67;;;22.23;;
53775;SDS011;44276;49.534;6.378;2023-03-01T06:28:05;36.47;;;17.63;;
53775;SDS011;44276;49.534;6.378;2023-03-01T06:30:33;24.08;;;11.05;;
53775;SDS011;44276;49.534;6.378;2023-03-01T06:33:01;26.20;;;12.38;;
53775;SDS011;44276;49.534;6.378;2023-03-01T06:35:30;23.50;;;12.00;;
53775;SDS011;44276;49.534;6.378;2023-03-01T06:37:59;26.35;;;13.55;;
53775;SDS011;44276;49.534;6.378;2023-03-01T06:40:30;21.95;;;10.77;;
53775;SDS011;44276;49.534;6.378;2023-03-01T06:43:02;26.13;;;11.73;;
53775;SDS011;44276;49.534;6.378;2023-03-01T06:45:32;23.70;;;12.20;;
53775;SDS011;44276;49.534;6.378;2023-03-01T06:48:01;21.02;;;10.98;;
53775;SDS011;44276;49.534;6.378;2023-03-01T06:50:31;22.02;;;12.00;;
53775;SDS011;44276;49.534;6.378;2023-03-01T06:53:01;24.02;;;12.02;;
53775;SDS011;44276;49.534;6.378;2023-03-01T06:55:30;24.13;;;11.55;;
53775;SDS011;44276;49.534;6.378;2023-03-01T06:57:59;22.48;;;11.93;;
53775;SDS011;44276;49.534;6.378;2023-03-01T07:00:30;22.70;;;10.90;;
53775;SDS011;44276;49.534;6.378;2023-03-01T07:02:59;20.13;;;11.77;;
53775;SDS011;44276;49.534;6.378;2023-03-01T07:05:29;22.75;;;11.50;;
53775;SDS011;44276;49.534;6.378;2023-03-01T07:07:58;23.75;;;12.80;;
53775;SDS011;44276;49.534;6.378;2023-03-01T07:10:26;17.02;;;9.98;;
53775;SDS011;44276;49.534;6.378;2023-03-01T07:12:54;24.13;;;12.10;;
53775;SDS011;44276;49.534;6.378;2023-03-01T07:15:23;20.08;;;11.52;;
53775;SDS011;44276;49.534;6.378;2023-03-01T07:17:54;25.77;;;10.80;;
53775;SDS011;44276;49.534;6.378;2023-03-01T07:20:23;28.13;;;11.63;;
53775;SDS011;44276;49.534;6.378;2023-03-01T07:22:52;23.67;;;11.48;;
53775;SDS011;44276;49.534;6.378;2023-03-01T07:25:21;22.63;;;8.93;;
53775;SDS011;44276;49.534;6.378;2023-03-01T07:27:50;19.67;;;10.48;;
53775;SDS011;44276;49.534;6.378;2023-03-01T07:30:19;24.27;;;11.82;;
53775;SDS011;44276;49.534;6.378;2023-03-01T07:32:48;23.85;;;11.70;;
53775;SDS011;44276;49.534;6.378;2023-03-01T07:35:17;22.85;;;11.88;;
53775;SDS011;44276;49.534;6.378;2023-03-01T07:37:45;25.50;;;11.77;;
53775;SDS011;44276;49.534;6.378;2023-03-01T07:40:13;27.08;;;17.33;;
53775;SDS011;44276;49.534;6.378;2023-03-01T07:42:42;25.63;;;12.57;;
53775;SDS011;44276;49.534;6.378;2023-03-01T07:45:10;19.73;;;11.95;;
53775;SDS011;44276;49.534;6.378;2023-03-01T07:47:39;17.73;;;9.60;;
53775;SDS011;44276;49.534;6.378;2023-03-01T07:50:08;20.10;;;9.98;;
53775;SDS011;44276;49.534;6.378;2023-03-01T07:52:39;19.67;;;10.63;;
53775;SDS011;44276;49.534;6.378;2023-03-01T07:55:07;25.52;;;11.52;;
53775;SDS011;44276;49.534;6.378;2023-03-01T07:57:36;20.95;;;11.15;;
53775;SDS011;44276;49.534;6.378;2023-03-01T08:00:05;26.92;;;12.57;;
53775;SDS011;44276;49.534;6.378;2023-03-01T08:02:38;18.35;;;9.43;;
53775;SDS011;44276;49.534;6.378;2023-03-01T08:05:08;23.45;;;11.77;;
53775;SDS011;44276;49.534;6.378;2023-03-01T08:07:38;22.50;;;11.38;;
53775;SDS011;44276;49.534;6.378;2023-03-01T08:10:06;21.02;;;10.43;;
53775;SDS011;44276;49.534;6.378;2023-03-01T08:12:36;22.45;;;12.27;;
53775;SDS011;44276;49.534;6.378;2023-03-01T08:15:04;18.13;;;10.15;;
53775;SDS011;44276;49.534;6.378;2023-03-01T08:17:34;23.00;;;10.38;;
53775;SDS011;44276;49.534;6.378;2023-03-01T08:20:02;23.38;;;11.55;;
53775;SDS011;44276;49.534;6.378;2023-03-01T08:22:32;23.08;;;12.45;;
53775;SDS011;44276;49.534;6.378;2023-03-01T08:25:02;23.75;;;11.07;;
53775;SDS011;44276;49.534;6.378;2023-03-01T08:27:31;18.30;;;10.00;;
53775;SDS011;44276;49.534;6.378;2023-03-01T08:29:59;18.25;;;9.82;;
53775;SDS011;44276;49.534;6.378;2023-03-01T08:32:27;19.23;;;9.93;;
53775;SDS011;44276;49.534;6.378;2023-03-01T08:34:55;23.70;;;13.35;;
53775;SDS011;44276;49.534;6.378;2023-03-01T08:37:23;19.02;;;10.80;;
53775;SDS011;44276;49.534;6.378;2023-03-01T08:39:52;17.58;;;9.90;;
53775;SDS011;44276;49.534;6.378;2023-03-01T08:42:22;21.30;;;11.43;;
53775;SDS011;44276;49.534;6.378;2023-03-01T08:44:50;21.27;;;12.93;;
53775;SDS011;44276;49.534;6.378;2023-03-01T08:47:18;17.10;;;9.70;;
53775;SDS011;44276;49.534;6.378;2023-03-01T08:49:46;17.45;;;10.48;;
53775;SDS011;44276;49.534;6.378;2023-03-01T08:52:17;18.60;;;10.10;;
53775;SDS011;44276;49.534;6.378;2023-03-01T08:54:45;20.00;;;10.85;;
53775;SDS011;44276;49.534;6.378;2023-03-01T08:57:14;19.50;;;10.05;;
53775;SDS011;44276;49.534;6.378;2023-03-01T08:59:44;22.27;;;11.27;;
53775;SDS011;44276;49.534;6.378;2023-03-01T09:02:13;18.17;;;10.10;;
53775;SDS011;44276;49.534;6.378;2023-03-01T09:04:43;21.13;;;11.70;;
53775;SDS011;44276;49.534;6.378;2023-03-01T09:07:12;17.13;;;9.98;;
53775;SDS011;44276;49.534;6.378;2023-03-01T09:09:40;18.73;;;10.68;;
53775;SDS011;44276;49.534;6.378;2023-03-01T09:12:08;14.65;;;10.00;;
53775;SDS011;44276;49.534;6.378;2023-03-01T09:14:36;18.17;;;10.05;;
53775;SDS011;44276;49.534;6.378;2023-03-01T09:17:06;18.30;;;10.82;;
53775;SDS011;44276;49.534;6.378;2023-03-01T09:19:34;20.08;;;10.27;;
53775;SDS011;44276;49.534;6.378;2023-03-01T09:22:03;15.60;;;9.30;;
53775;SDS011;44276;49.534;6.378;2023-03-01T09:24:31;16.92;;;9.90;;
53775;SDS011;44276;49.534;6.378;2023-03-01T09:27:00;21.25;;;10.80;;
53775;SDS011;44276;49.534;6.378;2023-03-01T09:29:29;16.75;;;10.73;;
53775;SDS011;44276;49.534;6.378;2023-03-01T09:31:57;18.08;;;10.65;;
53775;SDS011;44276;49.534;6.378;2023-03-01T09:34:27;15.55;;;9.48;;
53775;SDS011;44276;49.534;6.378;2023-03-01T09:36:57;18.92;;;11.07;;
53775;SDS011;44276;49.534;6.378;2023-03-01T09:39:28;19.38;;;10.60;;
53775;SDS011;44276;49.534;6.378;2023-03-01T09:41:57;16.77;;;10.63;;
53775;SDS011;44276;49.534;6.378;2023-03-01T09:44:31;20.67;;;11.90;;
53775;SDS011;44276;49.534;6.378;2023-03-01T09:47:08;18.63;;;10.35;;
53775;SDS011;44276;49.534;6.378;2023-03-01T09:49:45;16.80;;;9.95;;
53775;SDS011;44276;49.534;6.378;2023-03-01T09:52:30;19.00;;;11.57;;
53775;SDS011;44276;49.534;6.378;2023-03-01T09:55:11;21.88;;;10.75;;
53775;SDS011;44276;49.534;6.378;2023-03-01T09:57:44;17.42;;;10.65;;
53775;SDS011;44276;49.534;6.378;2023-03-01T10:00:28;15.13;;;10.25;;
53775;SDS011;44276;49.534;6.378;2023-03-01T10:03:08;20.00;;;11.07;;
53775;SDS011;44276;49.534;6.378;2023-03-01T10:05:49;16.40;;;10.75;;
53775;SDS011;44276;49.534;6.378;2023-03-01T10:08:33;22.83;;;10.52;;
53775;SDS011;44276;49.534;6.378;2023-03-01T10:11:15;16.80;;;11.25;;
53775;SDS011;44276;49.534;6.378;2023-03-01T10:13:52;20.35;;;10.77;;
53775;SDS011;44276;49.534;6.378;2023-03-01T10:16:32;19.08;;;11.77;;
53775;SDS011;44276;49.534;6.378;2023-03-01T10:19:11;16.92;;;10.90;;
53775;SDS011;44276;49.534;6.378;2023-03-01T10:21:46;15.43;;;10.40;;
53775;SDS011;44276;49.534;6.378;2023-03-01T10:24:16;16.25;;;10.13;;
53775;SDS011;44276;49.534;6.378;2023-03-01T10:26:48;19.38;;;11.77;;
53775;SDS011;44276;49.534;6.378;2023-03-01T10:29:23;16.92;;;9.65;;
53775;SDS011;44276;49.534;6.378;2023-03-01T10:31:59;16.17;;;10.57;;
53775;SDS011;44276;49.534;6.378;2023-03-01T10:34:28;17.88;;;10.50;;
53775;SDS011;44276;49.534;6.378;2023-03-01T10:37:04;18.00;;;10.18;;
53775;SDS011;44276;49.534;6.378;2023-03-01T10:39:54;19.73;;;12.15;;
53775;SDS011;44276;49.534;6.378;2023-03-01T10:42:26;17.13;;;10.93;;
53775;SDS011;44276;49.534;6.378;2023-03-01T10:44:58;19.08;;;12.02;;
53775;SDS011;44276;49.534;6.378;2023-03-01T10:47:43;22.90;;;12.48;;
53775;SDS011;44276;49.534;6.378;2023-03-01T10:50:19;19.02;;;12.65;;
53775;SDS011;44276;49.534;6.378;2023-03-01T10:52:58;18.92;;;10.93;;
53775;SDS011;44276;49.534;6.378;2023-03-01T10:55:30;16.58;;;10.70;;
53775;SDS011;44276;49.534;6.378;2023-03-01T10:58:06;18.80;;;10.70;;
53775;SDS011;44276;49.534;6.378;2023-03-01T11:00:46;17.55;;;11.23;;
53775;SDS011;44276;49.534;6.378;2023-03-01T11:03:20;19.88;;;11.02;;
53775;SDS011;44276;49.534;6.378;2023-03-01T11:05:57;17.95;;;10.60;;
53775;SDS011;44276;49.534;6.378;2023-03-01T11:08:35;20.20;;;11.02;;
53775;SDS011;44276;49.534;6.378;2023-03-01T11:11:19;16.70;;;11.27;;
53775;SDS011;44276;49.534;6.378;2023-03-01T11:13:59;19.08;;;10.93;;
53775;SDS011;44276;49.534;6.378;2023-03-01T11:16:57;18.92;;;10.35;;
53775;SDS011;44276;49.534;6.378;2023-03-01T11:19:29;21.98;;;10.82;;
53775;SDS011;44276;49.534;6.378;2023-03-01T11:21:59;17.08;;;11.15;;
53775;SDS011;44276;49.534;6.378;2023-03-01T11:24:40;16.63;;;10.15;;
53775;SDS011;44276;49.534;6.378;2023-03-01T11:27:29;15.38;;;10.05;;
53775;SDS011;44276;49.534;6.378;2023-03-01T11:30:05;19.85;;;12.02;;
53775;SDS011;44276;49.534;6.378;2023-03-01T11:32:47;16.48;;;10.07;;
53775;SDS011;44276;49.534;6.378;2023-03-01T11:35:25;20.27;;;11.77;;
53775;SDS011;44276;49.534;6.378;2023-03-01T11:37:59;18.13;;;11.73;;
53775;SDS011;44276;49.534;6.378;2023-03-01T11:40:45;18.38;;;10.35;;
53775;SDS011;44276;49.534;6.378;2023-03-01T11:43:23;18.27;;;11.88;;
53775;SDS011;44276;49.534;6.378;2023-03-01T11:46:14;17.35;;;10.63;;
53775;SDS011;44276;49.534;6.378;2023-03-01T11:52:32;16.40;;;10.73;;
53775;SDS011;44276;49.534;6.378;2023-03-01T11:55:18;16.85;;;10.60;;
53775;SDS011;44276;49.534;6.378;2023-03-01T11:58:09;18.52;;;11.05;;
53775;SDS011;44276;49.534;6.378;2023-03-01T12:00:57;18.83;;;10.65;;
53775;SDS011;44276;49.534;6.378;2023-03-01T12:06:55;18.45;;;10.77;;
53775;SDS011;44276;49.534;6.378;2023-03-01T12:09:31;17.73;;;11.40;;
53775;SDS011;44276;49.534;6.378;2023-03-01T12:12:25;17.55;;;11.73;;
53775;SDS011;44276;49.534;6.378;2023-03-01T12:15:10;19.15;;;11.07;;
53775;SDS011;44276;49.534;6.378;2023-03-01T12:18:32;21.50;;;13.10;;
53775;SDS011;44276;49.534;6.378;2023-03-01T12:21:30;17.58;;;10.40;;
53775;SDS011;44276;49.534;6.378;2023-03-01T12:24:16;19.00;;;12.27;;
53775;SDS011;44276;49.534;6.378;2023-03-01T12:27:19;17.65;;;10.82;;
53775;SDS011;44276;49.534;6.378;2023-03-01T12:30:09;23.23;;;11.70;;
53775;SDS011;44276;49.534;6.378;2023-03-01T12:33:01;19.08;;;11.38;;
53775;SDS011;44276;49.534;6.378;2023-03-01T12:36:01;19.90;;;11.35;;
53775;SDS011;44276;49.534;6.378;2023-03-01T12:39:13;18.58;;;10.95;;
53775;SDS011;44276;49.534;6.378;2023-03-01T12:42:02;16.60;;;10.80;;
53775;SDS011;44276;49.534;6.378;2023-03-01T12:44:52;30.20;;;10.60;;
53775;SDS011;44276;49.534;6.378;2023-03-01T12:47:58;19.20;;;10.20;;
53775;SDS011;44276;49.534;6.378;2023-03-01T12:50:52;14.23;;;9.95;;
53775;SDS011;44276;49.534;6.378;2023-03-01T12:53:27;15.75;;;9.73;;
53775;SDS011;44276;49.534;6.378;2023-03-01T12:56:00;19.45;;;11.02;;
53775;SDS011;44276;49.534;6.378;2023-03-01T12:58:35;16.58;;;9.80;;
53775;SDS011;44276;49.534;6.378;2023-03-01T13:01:22;16.27;;;9.88;;
53775;SDS011;44276;49.534;6.378;2023-03-01T13:07:07;19.55;;;10.35;;
53775;SDS011;44276;49.534;6.378;2023-03-01T13:09:54;20.33;;;14.23;;
53775;SDS011;44276;49.534;6.378;2023-03-01T13:12:41;15.38;;;9.35;;
53775;SDS011;44276;49.534;6.378;2023-03-01T13:15:29;17.70;;;10.40;;
53775;SDS011;44276;49.534;6.378;2023-03-01T13:18:03;18.92;;;11.35;;
53775;SDS011;44276;49.534;6.378;2023-03-01T13:20:58;20.65;;;10.43;;
53775;SDS011;44276;49.534;6.378;2023-03-01T13:23:30;16.13;;;10.52;;
53775;SDS011;44276;49.534;6.378;2023-03-01T13:26:03;21.33;;;12.25;;
53775;SDS011;44276;49.534;6.378;2023-03-01T13:28:40;18.27;;;10.35;;
53775;SDS011;44276;49.534;6.378;2023-03-01T13:34:45;18.05;;;9.93;;
53775;SDS011;44276;49.534;6.378;2023-03-01T13:37:26;17.50;;;10.15;;
53775;SDS011;44276;49.534;6.378;2023-03-01T13:40:03;21.48;;;11.50;;
53775;SDS011;44276;49.534;6.378;2023-03-01T13:43:25;17.30;;;9.43;;
53775;SDS011;44276;49.534;6.378;2023-03-01T13:45:58;16.80;;;11.07;;
53775;SDS011;44276;49.534;6.378;2023-03-01T13:48:29;15.50;;;10.57;;
53775;SDS011;44276;49.534;6.378;2023-03-01T13:51:02;21.92;;;10.05;;
53775;SDS011;44276;49.534;6.378;2023-03-01T13:53:35;19.23;;;11.25;;
53775;SDS011;44276;49.534;6.378;2023-03-01T13:56:11;16.70;;;10.50;;
53775;SDS011;44276;49.534;6.378;2023-03-01T13:58:45;16.67;;;11.13;;
53775;SDS011;44276;49.534;6.378;2023-03-01T14:01:21;13.85;;;10.40;;
53775;SDS011;44276;49.534;6.378;2023-03-01T14:03:56;18.60;;;9.98;;
53775;SDS011;44276;49.534;6.378;2023-03-01T14:06:29;22.85;;;11.13;;
53775;SDS011;44276;49.534;6.378;2023-03-01T14:09:04;24.70;;;10.68;;
53775;SDS011;44276;49.534;6.378;2023-03-01T14:11:54;15.50;;;8.80;;
53775;SDS011;44276;49.534;6.378;2023-03-01T14:14:52;19.38;;;11.35;;
53775;SDS011;44276;49.534;6.378;2023-03-01T14:17:38;17.80;;;9.93;;
53775;SDS011;44276;49.534;6.378;2023-03-01T14:20:18;23.55;;;10.90;;
53775;SDS011;44276;49.534;6.378;2023-03-01T14:22:51;18.95;;;11.18;;
53775;SDS011;44276;49.534;6.378;2023-03-01T14:25:23;18.08;;;11.70;;
53775;SDS011;44276;49.534;6.378;2023-03-01T14:28:00;16.08;;;10.90;;
53775;SDS011;44276;49.534;6.378;2023-03-01T14:30:41;18.92;;;10.23;;
53775;SDS011;44276;49.534;6.378;2023-03-01T14:33:18;17.98;;;10.10;;
53775;SDS011;44276;49.534;6.378;2023-03-01T14:35:57;16.60;;;9.73;;
53775;SDS011;44276;49.534;6.378;2023-03-01T14:38:30;16.52;;;10.50;;
53775;SDS011;44276;49.534;6.378;2023-03-01T14:41:02;14.82;;;9.20;;
53775;SDS011;44276;49.534;6.378;2023-03-01T14:43:35;17.10;;;9.13;;
53775;SDS011;44276;49.534;6.378;2023-03-01T14:46:06;21.00;;;10.98;;
53775;SDS011;44276;49.534;6.378;2023-03-01T14:48:48;21.52;;;10.48;;
53775;SDS011;44276;49.534;6.378;2023-03-01T14:51:19;18.50;;;9.82;;
53775;SDS011;44276;49.534;6.378;2023-03-01T14:53:49;17.85;;;10.50;;
53775;SDS011;44276;49.534;6.378;2023-03-01T14:56:18;19.08;;;10.77;;
53775;SDS011;44276;49.534;6.378;2023-03-01T14:58:50;20.63;;;10.02;;
53775;SDS011;44276;49.534;6.378;2023-03-01T15:01:20;20.73;;;10.88;;
53775;SDS011;44276;49.534;6.378;2023-03-01T15:03:49;21.33;;;11.35;;
53775;SDS011;44276;49.534;6.378;2023-03-01T15:06:19;20.67;;;9.85;;
53775;SDS011;44276;49.534;6.378;2023-03-01T15:08:52;17.98;;;8.73;;
53775;SDS011;44276;49.534;6.378;2023-03-01T15:11:24;16.48;;;10.18;;
53775;SDS011;44276;49.534;6.378;2023-03-01T15:13:55;14.73;;;9.35;;
53775;SDS011;44276;49.534;6.378;2023-03-01T15:16:25;16.85;;;9.23;;
53775;SDS011;44276;49.534;6.378;2023-03-01T15:18:58;17.45;;;9.07;;
53775;SDS011;44276;49.534;6.378;2023-03-01T15:21:30;18.40;;;10.32;;
53775;SDS011;44276;49.534;6.378;2023-03-01T15:24:04;19.67;;;10.07;;
53775;SDS011;44276;49.534;6.378;2023-03-01T15:26:49;22.67;;;10.07;;